Terminal Aerodrome Forecast
Issued by NWS Sterling, VA

Home | Current Version | Previous Version | Text Only | Print | Product List | Glossary On
Versions: 1 2 3 4 5 6 7 8 9 10 11 12 13 14 15 16
546
FTUS41 KLWX 281745 AAA
TAFMRB
TAF AMD
KMRB 281745Z 2818/2918 17006KT P6SM SCT050
     FM290800 VRB03KT 4SM BR FEW250
     FM291400 17005KT P6SM BKN150=

USA.gov is the U.S. government's official web portal to all federal, state and local government web resources and services.